createdAt,value
2022-09-28T00:00:28.734Z,44.97
2022-09-28T00:02:58.619Z,43.02
2022-09-28T00:05:26.918Z,42.05
2022-09-28T00:07:54.089Z,40.44
2022-09-28T00:10:22.996Z,40.25
2022-09-28T00:12:49.786Z,40.15
2022-09-28T00:15:16.521Z,39.65
2022-09-28T00:17:46.340Z,39.20
2022-09-28T00:20:13.134Z,39.36
2022-09-28T00:22:39.897Z,39.36
2022-09-28T00:25:06.647Z,39.25
2022-09-28T00:27:33.427Z,38.85
2022-09-28T00:30:00.292Z,38.62
2022-09-28T00:32:27.886Z,38.77
2022-09-28T00:34:55.002Z,39.55
2022-09-28T00:37:21.856Z,42.28
2022-09-28T00:39:48.675Z,41.83
2022-09-28T00:42:15.515Z,45.96
2022-09-28T00:44:42.397Z,43.25
2022-09-28T00:47:09.178Z,41.64
2022-09-28T00:49:36.000Z,40.27
2022-09-28T00:52:02.756Z,40.23
2022-09-28T00:54:29.496Z,39.78
2022-09-28T00:56:56.378Z,39.32
2022-09-28T00:59:24.702Z,39.47
2022-09-28T01:01:51.572Z,38.74
2022-09-28T01:04:18.382Z,39.07
2022-09-28T01:06:45.157Z,38.94
2022-09-28T01:09:11.964Z,39.26
2022-09-28T01:11:38.733Z,38.89
2022-09-28T01:14:05.470Z,38.53
2022-09-28T01:16:32.273Z,42.45
2022-09-28T01:18:59.096Z,41.76
2022-09-28T01:21:25.913Z,45.05
2022-09-28T01:23:52.669Z,43.96
2022-09-28T01:26:19.439Z,41.88
2022-09-28T01:28:46.180Z,40.89
2022-09-28T01:31:12.964Z,40.10
2022-09-28T01:33:39.765Z,39.66
2022-09-28T01:36:06.509Z,39.68
2022-09-28T01:38:33.261Z,39.25
2022-09-28T01:41:00.079Z,38.91
2022-09-28T01:43:26.906Z,38.85
2022-09-28T01:45:53.726Z,38.76
2022-09-28T01:48:20.522Z,38.45
2022-09-28T01:50:47.291Z,38.75
2022-09-28T01:53:14.045Z,38.45
2022-09-28T01:55:40.989Z,38.35
2022-09-28T01:58:07.743Z,38.35
2022-09-28T02:00:34.545Z,41.63
2022-09-28T02:03:01.360Z,41.71
2022-09-28T02:05:28.100Z,44.34
2022-09-28T02:07:54.961Z,43.86
2022-09-28T02:10:21.789Z,42.11
2022-09-28T02:12:48.550Z,40.88
2022-09-28T02:15:15.311Z,39.79
2022-09-28T02:17:42.080Z,39.50
2022-09-28T02:20:08.905Z,39.17
2022-09-28T02:22:35.679Z,38.90
2022-09-28T02:25:02.440Z,38.98
2022-09-28T02:27:29.665Z,38.98
2022-09-28T02:29:56.407Z,38.70
2022-09-28T02:32:23.163Z,38.96
2022-09-28T02:34:49.922Z,38.68
2022-09-28T02:37:16.673Z,41.94
2022-09-28T02:39:43.444Z,43.12
2022-09-28T02:42:10.208Z,47.07
2022-09-28T02:44:37.011Z,43.54
2022-09-28T02:47:03.773Z,41.89
2022-09-28T02:49:30.672Z,40.94
2022-09-28T02:51:57.571Z,40.08
2022-09-28T02:54:24.341Z,39.44
2022-09-28T02:56:51.132Z,39.24
2022-09-28T02:59:18.521Z,39.23
2022-09-28T03:01:45.344Z,38.46
2022-09-28T03:04:12.178Z,38.64
2022-09-28T03:06:39.273Z,38.78
2022-09-28T03:09:06.049Z,38.70
2022-09-28T03:11:32.897Z,38.14
2022-09-28T03:13:59.682Z,38.32
2022-09-28T03:16:27.485Z,38.87
2022-09-28T03:18:54.351Z,42.37
2022-09-28T03:21:21.112Z,43.00
2022-09-28T03:23:47.961Z,46.06
2022-09-28T03:26:14.745Z,42.76
2022-09-28T03:28:41.492Z,41.32
2022-09-28T03:31:08.293Z,40.26
2022-09-28T03:33:35.118Z,39.85
2022-09-28T03:36:01.859Z,39.41
2022-09-28T03:38:28.624Z,39.09
2022-09-28T03:40:55.509Z,38.86
2022-09-28T03:43:22.296Z,38.65
2022-09-28T03:45:49.107Z,38.73
2022-09-28T03:48:15.876Z,38.32
2022-09-28T03:50:42.613Z,38.50
2022-09-28T03:53:09.380Z,38.47
2022-09-28T03:55:36.121Z,38.81
2022-09-28T03:58:02.870Z,42.15
2022-09-28T04:00:29.872Z,42.81
2022-09-28T04:02:56.614Z,46.78
2022-09-28T04:05:23.369Z,42.46
2022-09-28T04:07:50.384Z,41.31
2022-09-28T04:10:17.216Z,40.14
2022-09-28T04:12:45.813Z,39.41
2022-09-28T04:15:12.597Z,39.33
2022-09-28T04:17:40.232Z,38.91
2022-09-28T04:20:07.346Z,38.70
2022-09-28T04:22:34.194Z,38.84
2022-09-28T04:25:00.952Z,38.50
2022-09-28T04:27:46.471Z,38.57
2022-09-28T04:30:13.232Z,38.08
2022-09-28T04:32:40.294Z,38.37
2022-09-28T04:35:07.080Z,38.09
2022-09-28T04:37:33.860Z,37.97
2022-09-28T04:40:00.614Z,38.77
2022-09-28T04:42:27.410Z,41.93
2022-09-28T04:44:54.164Z,42.83
2022-09-28T04:47:20.932Z,46.29
2022-09-28T04:49:47.705Z,42.36
2022-09-28T04:52:18.228Z,40.96
2022-09-28T04:54:45.325Z,39.87
2022-09-28T04:57:12.093Z,39.50
2022-09-28T04:59:38.938Z,38.83
2022-09-28T05:02:05.763Z,38.75
2022-09-28T05:04:32.603Z,38.41
2022-09-28T05:06:59.368Z,38.80
2022-09-28T05:09:26.128Z,38.77
2022-09-28T05:11:53.051Z,38.58
2022-09-28T05:14:21.845Z,38.60
2022-09-28T05:16:48.711Z,38.15
2022-09-28T05:19:15.645Z,38.14
2022-09-28T05:21:42.411Z,38.11
2022-09-28T05:24:09.151Z,41.49
2022-09-28T05:26:35.973Z,42.87
2022-09-28T05:29:02.758Z,46.84
2022-09-28T05:31:29.579Z,43.19
2022-09-28T05:33:56.371Z,41.27
2022-09-28T05:36:24.434Z,40.25
2022-09-28T05:38:51.215Z,39.65
2022-09-28T05:41:18.068Z,39.18
2022-09-28T05:43:45.600Z,38.76
2022-09-28T05:46:12.395Z,38.66
2022-09-28T05:48:39.475Z,38.56
2022-09-28T05:51:06.222Z,38.15
2022-09-28T05:53:32.982Z,38.37
2022-09-28T05:55:59.816Z,38.32
2022-09-28T05:58:26.644Z,37.82
2022-09-28T06:00:53.445Z,37.50
2022-09-28T06:03:20.250Z,38.05
2022-09-28T06:05:47.339Z,41.97
2022-09-28T06:08:14.078Z,42.71
2022-09-28T06:10:40.943Z,46.37
2022-09-28T06:13:07.773Z,42.55
2022-09-28T06:15:34.526Z,40.66
2022-09-28T06:18:01.283Z,39.91
2022-09-28T06:20:28.067Z,39.01
2022-09-28T06:22:54.818Z,38.83
2022-09-28T06:25:22.126Z,38.26
2022-09-28T06:27:49.800Z,38.34
2022-09-28T06:30:16.563Z,38.37
2022-09-28T06:32:43.334Z,38.52
2022-09-28T06:35:10.087Z,38.02
2022-09-28T06:37:36.842Z,38.04
2022-09-28T06:40:03.644Z,38.04
2022-09-28T06:42:30.394Z,37.83
2022-09-28T06:44:58.335Z,37.93
2022-09-28T06:47:25.129Z,38.14
2022-09-28T06:49:55.181Z,41.64
2022-09-28T06:52:21.973Z,43.44
2022-09-28T06:54:48.757Z,45.34
2022-09-28T06:57:15.615Z,41.85
2022-09-28T06:59:42.364Z,40.41
2022-09-28T07:02:09.180Z,39.39
2022-09-28T07:04:35.949Z,38.83
2022-09-28T07:07:02.702Z,38.76
2022-09-28T07:09:33.515Z,38.39
2022-09-28T07:12:01.220Z,38.56
2022-09-28T07:14:46.249Z,38.40
2022-09-28T07:17:14.879Z,37.67
2022-09-28T07:19:41.892Z,37.63
2022-09-28T07:22:08.730Z,37.84
2022-09-28T07:24:35.542Z,38.29
2022-09-28T07:27:05.488Z,42.10
2022-09-28T07:29:32.232Z,42.83
2022-09-28T07:31:59.682Z,45.22
2022-09-28T07:34:26.423Z,41.86
2022-09-28T07:36:57.349Z,40.23
2022-09-28T07:39:24.233Z,39.46
2022-09-28T07:41:50.982Z,39.25
2022-09-28T07:44:18.905Z,38.83
2022-09-28T07:46:46.511Z,38.29
2022-09-28T07:49:15.452Z,38.43
2022-09-28T07:51:44.749Z,38.12
2022-09-28T07:54:11.516Z,38.09
2022-09-28T07:56:38.267Z,37.90
2022-09-28T07:59:05.009Z,38.20
2022-09-28T08:01:31.797Z,37.99
2022-09-28T08:03:58.604Z,37.69
2022-09-28T08:06:25.410Z,37.74
2022-09-28T08:08:56.308Z,40.52
2022-09-28T08:11:23.135Z,41.35
2022-09-28T08:13:51.371Z,42.93
2022-09-28T08:16:18.908Z,43.51
2022-09-28T08:18:45.785Z,41.88
2022-09-28T08:21:31.733Z,40.55
2022-09-28T08:23:58.702Z,39.75
2022-09-28T08:26:25.445Z,38.88
2022-09-28T08:28:52.240Z,38.56
2022-09-28T08:31:19.052Z,38.60
2022-09-28T08:33:45.844Z,38.27
2022-09-28T08:36:12.606Z,38.53
2022-09-28T08:38:39.398Z,38.64
2022-09-28T08:41:06.220Z,38.13
2022-09-28T08:43:33.089Z,38.23
2022-09-28T08:45:59.884Z,38.02
2022-09-28T08:48:56.253Z,41.16
2022-09-28T08:51:28.095Z,41.99
2022-09-28T08:53:54.910Z,46.36
2022-09-28T08:56:21.712Z,43.77
2022-09-28T08:58:48.698Z,41.40
2022-09-28T09:01:16.517Z,40.29
2022-09-28T09:03:45.173Z,39.40
2022-09-28T09:06:16.381Z,38.99
2022-09-28T09:08:45.217Z,38.63
2022-09-28T09:11:12.402Z,38.89
2022-09-28T09:13:39.216Z,38.57
2022-09-28T09:16:06.045Z,38.25
2022-09-28T09:18:32.786Z,38.08
2022-09-28T09:20:59.618Z,38.38
2022-09-28T09:23:28.238Z,38.03
2022-09-28T09:25:55.023Z,38.20
2022-09-28T09:28:21.776Z,37.86
2022-09-28T09:30:48.570Z,41.44
2022-09-28T09:33:15.950Z,41.54
2022-09-28T09:35:42.748Z,44.79
2022-09-28T09:38:09.688Z,43.62
2022-09-28T09:40:36.460Z,41.40
2022-09-28T09:43:03.252Z,40.03
2022-09-28T09:45:30.015Z,39.21
2022-09-28T09:47:56.771Z,38.84
2022-09-28T09:50:29.916Z,38.72
2022-09-28T09:52:57.465Z,38.66
2022-09-28T09:55:29.645Z,38.89
2022-09-28T09:57:57.197Z,38.18
2022-09-28T10:00:24.115Z,38.14
2022-09-28T10:02:51.062Z,38.17
2022-09-28T10:05:17.956Z,37.86
2022-09-28T10:07:44.729Z,38.06
2022-09-28T10:10:11.497Z,41.41
2022-09-28T10:12:38.256Z,41.91
2022-09-28T10:15:06.512Z,45.53
2022-09-28T10:17:33.259Z,43.96
2022-09-28T10:20:00.004Z,41.47
2022-09-28T10:22:27.684Z,40.43
2022-09-28T10:24:57.477Z,39.26
2022-09-28T10:27:24.260Z,39.27
2022-09-28T10:29:51.020Z,39.02
2022-09-28T10:32:17.767Z,38.61
2022-09-28T10:34:48.729Z,38.60
2022-09-28T10:37:18.033Z,38.67
2022-09-28T10:39:44.811Z,38.53
2022-09-28T10:42:11.636Z,38.55
2022-09-28T10:44:38.726Z,38.06
2022-09-28T10:47:05.473Z,37.84
2022-09-28T10:49:32.232Z,40.26
2022-09-28T10:51:59.021Z,41.95
2022-09-28T10:54:25.843Z,43.13
2022-09-28T10:56:52.597Z,44.56
2022-09-28T10:59:19.412Z,41.91
2022-09-28T11:01:46.234Z,39.89
2022-09-28T11:04:14.560Z,39.50
2022-09-28T11:06:41.797Z,39.09
2022-09-28T11:09:08.556Z,38.80
2022-09-28T11:11:35.326Z,38.77
2022-09-28T11:14:03.353Z,38.33
2022-09-28T11:16:30.225Z,38.50
2022-09-28T11:18:57.102Z,38.62
2022-09-28T11:21:23.901Z,38.16
2022-09-28T11:23:50.662Z,38.40
2022-09-28T11:26:18.759Z,38.17
2022-09-28T11:28:45.825Z,38.39
2022-09-28T11:31:12.674Z,41.65
2022-09-28T11:33:39.538Z,41.92
2022-09-28T11:36:06.342Z,45.85
2022-09-28T11:38:36.258Z,43.19
2022-09-28T11:41:03.412Z,41.08
2022-09-28T11:43:30.255Z,40.04
2022-09-28T11:45:57.095Z,39.54
2022-09-28T11:48:23.899Z,38.94
2022-09-28T11:50:50.750Z,39.02
2022-09-28T11:53:17.768Z,38.43
2022-09-28T11:55:44.534Z,38.71
2022-09-28T11:58:11.621Z,38.22
2022-09-28T12:00:38.392Z,38.02
2022-09-28T12:03:05.289Z,38.41
2022-09-28T12:05:32.171Z,38.18
2022-09-28T12:07:58.905Z,40.12
2022-09-28T12:10:25.636Z,42.09
2022-09-28T12:12:52.423Z,45.08
2022-09-28T12:15:19.170Z,44.35
2022-09-28T12:17:46.236Z,41.91
2022-09-28T12:20:13.318Z,41.04
2022-09-28T12:22:40.081Z,40.12
2022-09-28T12:25:06.830Z,39.01
2022-09-28T12:27:33.747Z,38.97
2022-09-28T12:30:00.508Z,38.77
2022-09-28T12:32:27.244Z,38.52
2022-09-28T12:34:54.002Z,38.46
2022-09-28T12:37:20.745Z,38.47
2022-09-28T12:39:57.422Z,38.44
2022-09-28T12:42:27.560Z,38.16
2022-09-28T12:44:59.372Z,41.50
2022-09-28T12:47:26.519Z,42.50
2022-09-28T12:55:11.804Z,42.21
2022-09-28T12:57:38.574Z,40.80
2022-09-28T13:00:05.356Z,39.88
2022-09-28T13:02:32.350Z,39.88
2022-09-28T13:04:59.146Z,39.17
2022-09-28T13:07:25.897Z,39.05
2022-09-28T13:09:52.685Z,39.11
2022-09-28T13:12:19.434Z,38.62
2022-09-28T13:14:46.177Z,38.77
2022-09-28T13:17:12.937Z,38.72
2022-09-28T13:19:40.219Z,38.41
2022-09-28T13:22:07.031Z,38.32
2022-09-28T13:24:33.962Z,38.28
2022-09-28T13:27:01.081Z,41.88
2022-09-28T13:29:28.023Z,41.81
2022-09-28T13:31:54.908Z,43.92
2022-09-28T13:34:22.232Z,44.02
2022-09-28T13:36:48.974Z,41.88
2022-09-28T13:39:15.733Z,40.29
2022-09-28T13:41:42.470Z,40.01
2022-09-28T13:44:09.213Z,39.49
2022-09-28T13:46:36.040Z,38.93
2022-09-28T13:49:02.806Z,38.92
2022-09-28T13:51:29.566Z,38.90
2022-09-28T13:53:56.327Z,38.55
2022-09-28T13:56:23.217Z,38.20
2022-09-28T13:58:49.957Z,38.38
2022-09-28T14:01:17.225Z,38.50
2022-09-28T14:03:43.984Z,39.25
2022-09-28T14:06:11.449Z,42.26
2022-09-28T14:08:38.386Z,41.48
2022-09-28T14:11:05.127Z,44.94
2022-09-28T14:13:31.874Z,43.07
2022-09-28T14:15:58.685Z,41.23
2022-09-28T14:18:25.456Z,40.63
2022-09-28T14:20:52.213Z,39.56
2022-09-28T14:23:19.008Z,39.33
2022-09-28T14:25:45.825Z,38.90
2022-09-28T14:28:12.612Z,38.85
2022-09-28T14:30:39.397Z,38.98
2022-09-28T14:33:06.237Z,38.63
2022-09-28T14:35:32.990Z,38.88
2022-09-28T14:38:18.635Z,38.13
2022-09-28T14:41:04.034Z,38.91
2022-09-28T14:43:30.930Z,42.39
2022-09-28T14:45:57.745Z,41.52
2022-09-28T14:48:24.519Z,44.95
2022-09-28T14:50:51.385Z,43.11
2022-09-28T14:53:19.497Z,41.72
2022-09-28T14:55:49.760Z,40.28
2022-09-28T14:58:16.605Z,39.82
2022-09-28T15:00:43.389Z,39.56
2022-09-28T15:03:12.276Z,39.29
2022-09-28T15:05:39.291Z,39.30
2022-09-28T15:08:07.853Z,39.25
2022-09-28T15:10:34.665Z,38.86
2022-09-28T15:13:01.788Z,38.86
2022-09-28T15:15:29.190Z,38.80
2022-09-28T15:17:56.002Z,38.75
2022-09-28T15:20:24.357Z,40.05
2022-09-28T15:22:51.533Z,42.43
2022-09-28T15:25:19.834Z,41.91
2022-09-28T15:27:48.343Z,44.56
2022-09-28T15:30:15.099Z,42.86
2022-09-28T15:32:41.841Z,41.42
2022-09-28T15:35:08.601Z,40.06
2022-09-28T15:37:39.636Z,39.42
2022-09-28T15:40:07.256Z,39.40
2022-09-28T15:42:36.111Z,39.22
2022-09-28T15:45:02.882Z,39.19
2022-09-28T15:47:29.624Z,38.66
2022-09-28T15:49:59.466Z,39.16
2022-09-28T15:52:26.241Z,39.08
2022-09-28T15:54:53.916Z,38.52
2022-09-28T15:57:20.686Z,39.78
2022-09-28T15:59:47.438Z,42.71
2022-09-28T16:02:14.230Z,41.36
2022-09-28T16:04:41.072Z,45.09
2022-09-28T16:07:08.965Z,43.39
2022-09-28T16:09:40.933Z,41.65
2022-09-28T16:12:08.926Z,40.50
2022-09-28T16:14:35.684Z,40.14
2022-09-28T16:17:03.842Z,39.60
2022-09-28T16:19:30.605Z,39.26
2022-09-28T16:21:57.349Z,39.45
2022-09-28T16:24:24.160Z,38.95
2022-09-28T16:26:50.929Z,39.46
2022-09-28T16:29:20.310Z,38.65
2022-09-28T16:31:52.551Z,39.00
2022-09-28T16:34:19.885Z,38.78
2022-09-28T16:36:47.089Z,38.63
2022-09-28T16:39:14.113Z,42.36
2022-09-28T16:41:40.867Z,42.12
2022-09-28T16:44:07.720Z,44.66
2022-09-28T16:46:36.958Z,43.91
2022-09-28T16:49:05.649Z,42.21
2022-09-28T16:51:32.854Z,40.80
2022-09-28T16:54:18.440Z,40.37
2022-09-28T16:56:45.254Z,39.52
2022-09-28T16:59:15.830Z,39.63
2022-09-28T17:01:43.720Z,39.17
2022-09-28T17:04:11.984Z,39.10
2022-09-28T17:06:38.735Z,39.30
2022-09-28T17:09:07.008Z,39.20
2022-09-28T17:11:33.819Z,38.64
2022-09-28T17:14:02.830Z,39.00
2022-09-28T17:19:18.269Z,42.17
2022-09-28T17:21:45.161Z,47.15
2022-09-28T17:24:12.022Z,44.61
2022-09-28T17:26:39.509Z,42.34
2022-09-28T17:29:09.704Z,41.27
2022-09-28T17:31:36.487Z,40.34
2022-09-28T17:34:03.235Z,39.89
2022-09-28T17:36:30.376Z,39.60
2022-09-28T17:38:57.200Z,39.30
2022-09-28T17:41:23.973Z,39.39
2022-09-28T17:43:50.770Z,39.34
2022-09-28T17:46:17.613Z,38.99
2022-09-28T17:48:46.936Z,38.58
2022-09-28T17:51:13.704Z,38.72
2022-09-28T17:53:40.449Z,38.81
2022-09-28T17:56:07.192Z,38.50
2022-09-28T17:58:34.296Z,42.41
2022-09-28T18:01:01.164Z,41.70
2022-09-28T18:03:27.939Z,46.85
2022-09-28T18:05:54.729Z,44.96
2022-09-28T18:08:21.477Z,42.34
2022-09-28T18:10:48.241Z,41.14
2022-09-28T18:13:15.041Z,40.39
2022-09-28T18:15:41.836Z,40.14
2022-09-28T18:18:09.509Z,39.29
2022-09-28T18:20:36.275Z,39.28
2022-09-28T18:23:03.028Z,39.34
2022-09-28T18:25:29.945Z,38.93
2022-09-28T18:27:57.435Z,38.98
2022-09-28T18:30:24.202Z,38.94
2022-09-28T18:32:51.029Z,38.79
2022-09-28T18:35:22.616Z,38.90
2022-09-28T18:37:50.021Z,38.96
2022-09-28T18:40:16.979Z,42.23
2022-09-28T18:42:43.896Z,42.28
2022-09-28T18:45:11.174Z,46.79
2022-09-28T18:47:38.257Z,44.57
2022-09-28T18:50:05.016Z,42.33
2022-09-28T18:52:31.772Z,41.45
2022-09-28T18:54:58.541Z,40.69
2022-09-28T18:57:25.336Z,39.83
2022-09-28T18:59:52.133Z,39.49
2022-09-28T19:02:19.906Z,39.48
2022-09-28T19:04:46.766Z,38.72
2022-09-28T19:07:13.499Z,39.10
2022-09-28T19:09:43.853Z,38.94
2022-09-28T19:12:10.613Z,38.58
2022-09-28T19:14:37.357Z,38.90
2022-09-28T19:17:04.196Z,38.62
2022-09-28T19:19:31.637Z,38.73
2022-09-28T19:21:58.425Z,38.44
2022-09-28T19:24:25.226Z,41.81
2022-09-28T19:26:54.753Z,42.52
2022-09-28T19:29:21.616Z,46.48
2022-09-28T19:31:48.388Z,45.21
2022-09-28T19:34:15.486Z,42.71
2022-09-28T19:36:42.352Z,41.49
2022-09-28T19:39:09.176Z,40.60
2022-09-28T19:41:49.147Z,39.69
2022-09-28T19:44:21.013Z,39.67
2022-09-28T19:46:47.796Z,39.27
2022-09-28T19:49:14.570Z,39.26
2022-09-28T19:52:01.692Z,38.68
2022-09-28T19:54:32.079Z,38.90
2022-09-28T19:57:07.315Z,38.97
2022-09-28T19:59:34.164Z,38.40
2022-09-28T20:02:01.977Z,38.63
2022-09-28T20:04:28.825Z,38.45
2022-09-28T20:06:55.596Z,41.46
2022-09-28T20:09:22.430Z,42.85
2022-09-28T20:11:51.213Z,44.93
2022-09-28T20:14:18.592Z,45.35
2022-09-28T20:16:46.198Z,42.52
2022-09-28T20:19:12.985Z,41.07
2022-09-28T20:21:39.774Z,40.53
2022-09-28T20:24:06.543Z,39.88
2022-09-28T20:26:37.706Z,39.50
2022-09-28T20:29:04.616Z,39.36
2022-09-28T20:31:31.412Z,39.00
2022-09-28T20:33:58.241Z,38.77
2022-09-28T20:36:25.003Z,38.65
2022-09-28T20:38:52.988Z,38.93
2022-09-28T20:41:19.796Z,38.57
2022-09-28T20:43:46.677Z,38.72
2022-09-28T20:46:13.615Z,38.54
2022-09-28T20:48:40.561Z,42.35
2022-09-28T20:51:10.120Z,41.68
2022-09-28T20:53:36.867Z,44.52
2022-09-28T20:56:03.651Z,43.72
2022-09-28T20:58:30.946Z,41.09
2022-09-28T21:00:57.696Z,40.74
2022-09-28T21:03:24.888Z,39.98
2022-09-28T21:05:51.701Z,39.57
2022-09-28T21:08:18.618Z,39.07
2022-09-28T21:10:45.478Z,39.03
2022-09-28T21:13:12.298Z,39.18
2022-09-28T21:15:39.115Z,38.76
2022-09-28T21:18:05.914Z,38.78
2022-09-28T21:20:32.694Z,38.58
2022-09-28T21:22:59.452Z,38.71
2022-09-28T21:25:26.205Z,38.60
2022-09-28T21:27:53.081Z,41.24
2022-09-28T21:30:20.068Z,42.12
2022-09-28T21:32:46.872Z,45.23
2022-09-28T21:35:13.646Z,45.30
2022-09-28T21:37:40.469Z,42.76
2022-09-28T21:40:09.649Z,41.47
2022-09-28T21:42:36.407Z,40.33
2022-09-28T21:45:03.191Z,39.66
2022-09-28T21:47:29.941Z,39.24
2022-09-28T21:49:56.709Z,39.00
2022-09-28T21:52:23.531Z,38.77
2022-09-28T21:54:50.283Z,38.64
2022-09-28T21:57:18.931Z,38.92
2022-09-28T21:59:46.986Z,38.81
2022-09-28T22:02:13.885Z,38.62
2022-09-28T22:04:40.909Z,38.26
2022-09-28T22:07:07.698Z,38.66
2022-09-28T22:09:34.456Z,41.65
2022-09-28T22:12:01.223Z,42.41
2022-09-28T22:14:27.969Z,46.24
2022-09-28T22:16:54.720Z,44.18
2022-09-28T22:19:21.504Z,41.98
2022-09-28T22:21:48.280Z,40.54
2022-09-28T22:24:15.073Z,40.03
2022-09-28T22:26:42.201Z,39.67
2022-09-28T22:29:09.119Z,38.99
2022-09-28T22:31:36.010Z,38.96
2022-09-28T22:34:02.824Z,38.78
2022-09-28T22:36:29.561Z,38.52
2022-09-28T22:38:56.301Z,38.47
2022-09-28T22:41:23.309Z,38.50
2022-09-28T22:43:50.128Z,38.41
2022-09-28T22:46:16.930Z,38.35
2022-09-28T22:48:43.754Z,38.08
2022-09-28T22:51:10.530Z,38.23
2022-09-28T22:53:37.741Z,40.29
2022-09-28T22:56:05.504Z,41.68
2022-09-28T22:58:32.509Z,44.77
2022-09-28T23:00:59.369Z,44.79
2022-09-28T23:03:26.144Z,42.05
2022-09-28T23:05:53.865Z,40.79
2022-09-28T23:08:20.669Z,39.92
2022-09-28T23:10:47.438Z,39.34
2022-09-28T23:13:14.211Z,39.23
2022-09-28T23:15:41.061Z,39.06
2022-09-28T23:18:08.493Z,38.74
2022-09-28T23:20:36.000Z,38.51
2022-09-28T23:23:02.741Z,38.60
2022-09-28T23:25:29.501Z,38.52
2022-09-28T23:27:56.244Z,38.49
2022-09-28T23:30:23.093Z,38.39
2022-09-28T23:32:50.011Z,38.53
2022-09-28T23:35:16.753Z,38.03
2022-09-28T23:37:43.493Z,41.85
2022-09-28T23:40:10.260Z,43.07
2022-09-28T23:42:37.163Z,46.45
2022-09-28T23:45:03.914Z,42.61
2022-09-28T23:47:30.742Z,40.88
2022-09-28T23:49:57.501Z,40.20
2022-09-28T23:52:24.240Z,39.47
2022-09-28T23:54:51.008Z,38.72
2022-09-28T23:57:17.750Z,38.95
2022-09-28T23:59:44.492Z,38.83
